Morocco, IN (47963)

1:57 PM CST on January 24, 2017 (GMT -0600)
KINMOROC2 | | Change Station
Active Advisory: Flood Warning, Flood Advisory

Elev 685 ft 41.02 °N, 87.45 °W | Updated 58 seconds ago

Overcast
Overcast
39.3 °F
Feels Like 39 °F
N
0.0
Wind Variable Wind from WSW
Gusts 3.0 mph

Today
High -- | Low -- °F
--% Chance of Precip.
Yesterday
High -- | Low -- °F
Precip. -- in
Pressure 29.85 in
Visibility 10.0 miles
Clouds Overcast 1300 ft
Windchill 39 °F
Dew Point 35 °F
Humidity 83%
Rainfall 0.00 in
Snow Depth Not available.
7:06 AM 4:57 PM
Waning Crescent, 10% visible
METAR KRZL 241935Z AUTO 30003KT 10SM OVC013 03/01 A2985 RMK AO2
Pressure 29.85 in
Visibility 10.0 miles
Clouds Overcast 1300 ft
Windchill 39 °F
Dew Point 35 °F
Humidity 83%
Rainfall 0.00 in
Snow Depth Not available.
7:06 AM 4:57 PM
Waning Crescent, 10% visible
METAR KRZL 241935Z AUTO 30003KT 10SM OVC013 03/01 A2985 RMK AO2

Get Your Daily Forecast Email!

Thanks for signing up!

Be on the lookout for a verification email in your inbox.

You'll start receiving the daily forecast at 8 AM.

×

10-Day Weather Forecast

Almanac

Astronomy

Jan. 24, 2017 Rise Set
Actual Time
Civil Twilight
Nautical Twilight
Astronomical Twilight
Moon
Length of Visible Light
Length of Day
Tomorrow will be .
, % of the Moon is Illuminated

Today's Extremes

State Highs State Lows

Community

WunderPhotos

Upload Photos

1,962,540 photos uploaded!

WunderBlog® & News

Nearby

Air Quality

  Air Quality AQ Index Pollutant
Not available.

Snow Depth

Station Depth Elevation

Earthquake Activity

City Distance Mag. Time & Date
Minimum magnitude displayed is 2.5.

Coastal Water Temperatures

Place Temperature

Stations

Nearby Weather Stations

Station Location Temp. Windchill Dew Point Humidity Wind Precip. Elev Updated Type
                   

Watches & Warnings

Flood Warning
Issued: 7:49 AM CST Jan. 24, 2017 – National Weather Service

The Flood Warning continues for
the Kankakee River at Shelby.
* Until Saturday morning.
* At 645 am Tuesday the stage was 10.2 feet.
* Flood stage is 9.0 feet.
* Minor flooding is occurring and minor flooding is forecast.
* Forecast... the river will continue to fall to below flood stage by
early Saturday morning.
* Impact... at 10.0 feet... flooding affects County and local roads.
Wildwood Estates and Sumava Resorts begin to experience some
flooding.


Lat... Lon 4127 8727 4121 8756 4111 8753 4118 8722


Acs



Flood Advisory
Issued: 7:50 AM CST Jan. 24, 2017 – National Weather Service

The Flood Advisory continues for
the Iroquois river near Foresman
* until Wednesday morning.
* At 645 am Tuesday the stage was 16.0 feet.
* Action stage is 15.0 feet.
* Flood stage is 18.0 feet.
* Forecast... the river will continue to fall.


Lat... Lon 4094 8727 4086 8749 4077 8746 4085 8723


Acs